createdAt,value
2023-04-21T00:02:17.600Z,34.25
2023-04-21T00:04:47.246Z,32.70
2023-04-21T00:07:16.432Z,34.83
2023-04-21T00:09:42.981Z,32.30
2023-04-21T00:12:09.369Z,33.97
2023-04-21T00:14:35.782Z,33.20
2023-04-21T00:17:02.170Z,31.45
2023-04-21T00:19:29.634Z,34.85
2023-04-21T00:21:58.814Z,32.10
2023-04-21T00:24:25.879Z,34.47
2023-04-21T00:26:52.292Z,33.78
2023-04-21T00:29:19.051Z,33.13
2023-04-21T00:31:45.628Z,32.58
2023-04-21T00:34:12.044Z,33.03
2023-04-21T00:36:38.414Z,33.08
2023-04-21T00:39:04.800Z,33.35
2023-04-21T00:41:31.343Z,32.13
2023-04-21T00:44:05.463Z,31.23
2023-04-21T00:46:32.366Z,35.13
2023-04-21T00:48:59.142Z,35.45
2023-04-21T00:51:27.373Z,34.30
2023-04-21T00:53:55.719Z,33.38
2023-04-21T00:56:22.389Z,34.45
2023-04-21T00:58:49.597Z,33.78
2023-04-21T01:01:17.178Z,33.17
2023-04-21T01:03:44.006Z,32.85
2023-04-21T01:06:10.591Z,30.85
2023-04-21T01:08:37.024Z,31.65
2023-04-21T01:11:13.441Z,34.85
2023-04-21T01:13:40.503Z,31.90
2023-04-21T01:16:08.102Z,33.92
2023-04-21T01:18:36.579Z,33.50
2023-04-21T01:21:04.283Z,35.20
2023-04-21T01:23:30.795Z,31.98
2023-04-21T01:25:57.174Z,37.88
2023-04-21T01:28:24.651Z,34.80
2023-04-21T01:30:51.509Z,34.83
2023-04-21T01:33:18.671Z,34.33
2023-04-21T01:35:45.522Z,31.85
2023-04-21T01:38:12.330Z,32.05
2023-04-21T01:40:39.212Z,32.80
2023-04-21T01:43:06.333Z,34.03
2023-04-21T01:45:32.727Z,32.33
2023-04-21T01:47:59.213Z,34.50
2023-04-21T01:50:25.760Z,34.55
2023-04-21T01:52:52.139Z,33.28
2023-04-21T01:55:18.614Z,32.38
2023-04-21T01:57:45.015Z,33.08
2023-04-21T02:00:12.113Z,33.83
2023-04-21T02:02:38.676Z,33.42
2023-04-21T02:05:05.683Z,37.72
2023-04-21T02:07:32.134Z,33.25
2023-04-21T02:09:58.588Z,34.28
2023-04-21T02:12:24.950Z,33.15
2023-04-21T02:14:51.484Z,31.38
2023-04-21T02:17:17.890Z,31.48
2023-04-21T02:19:44.263Z,31.58
2023-04-21T02:22:12.811Z,32.40
2023-04-21T02:24:39.489Z,33.58
2023-04-21T02:27:05.911Z,34.08
2023-04-21T02:29:32.362Z,35.42
2023-04-21T02:32:05.152Z,30.48
2023-04-21T02:34:36.982Z,32.30
2023-04-21T02:37:03.489Z,33.92
2023-04-21T02:39:30.071Z,34.28
2023-04-21T02:41:56.884Z,33.20
2023-04-21T02:44:23.283Z,31.75
2023-04-21T02:46:49.761Z,30.02
2023-04-21T02:49:16.364Z,31.10
2023-04-21T02:51:42.859Z,32.13
2023-04-21T02:54:09.261Z,30.65
2023-04-21T02:56:35.799Z,32.15
2023-04-21T02:59:02.269Z,32.00
2023-04-21T03:01:28.648Z,29.60
2023-04-21T03:03:55.285Z,30.27
2023-04-21T03:06:21.844Z,31.00
2023-04-21T03:08:48.265Z,32.42
2023-04-21T03:11:14.715Z,29.98
2023-04-21T03:13:41.264Z,31.85
2023-04-21T03:16:07.723Z,30.55
2023-04-21T03:18:37.029Z,33.65
2023-04-21T03:21:03.535Z,30.90
2023-04-21T03:23:29.909Z,32.15
2023-04-21T03:25:56.359Z,29.42
2023-04-21T03:28:22.764Z,32.17
2023-04-21T03:30:49.202Z,31.17
2023-04-21T03:33:15.615Z,31.00
2023-04-21T03:35:42.086Z,30.63
2023-04-21T03:38:08.467Z,32.83
2023-04-21T03:40:34.838Z,30.00
2023-04-21T03:43:01.256Z,30.92
2023-04-21T03:45:27.660Z,31.98
2023-04-21T03:47:55.411Z,33.55
2023-04-21T03:50:21.914Z,30.10
2023-04-21T03:52:48.363Z,34.70
2023-04-21T03:55:14.837Z,30.88
2023-04-21T03:57:42.111Z,29.25
2023-04-21T04:00:12.689Z,35.00
2023-04-21T04:02:39.393Z,32.53
2023-04-21T04:05:06.738Z,30.85
2023-04-21T04:07:33.435Z,31.60
2023-04-21T04:09:59.875Z,33.03
2023-04-21T04:12:26.349Z,31.38
2023-04-21T04:14:52.737Z,31.98
2023-04-21T04:17:19.174Z,31.95
2023-04-21T04:19:45.645Z,32.65
2023-04-21T04:22:12.308Z,25.98
2023-04-21T04:24:38.765Z,31.15
2023-04-21T04:27:05.637Z,29.65
2023-04-21T04:29:32.154Z,28.15
2023-04-21T04:32:01.310Z,28.90
2023-04-21T04:34:27.772Z,31.80
2023-04-21T04:36:54.143Z,32.03
2023-04-21T04:39:22.173Z,31.83
2023-04-21T04:41:48.718Z,29.85
2023-04-21T04:44:17.608Z,31.88
2023-04-21T04:46:45.539Z,32.17
2023-04-21T04:49:12.013Z,29.75
2023-04-21T04:51:38.699Z,32.47
2023-04-21T04:54:05.777Z,31.85
2023-04-21T04:56:32.231Z,27.85
2023-04-21T04:58:58.708Z,31.35
2023-04-21T05:01:30.216Z,29.98
2023-04-21T05:03:57.452Z,28.47
2023-04-21T05:06:24.068Z,29.30
2023-04-21T05:08:50.462Z,26.15
2023-04-21T05:11:16.838Z,31.60
2023-04-21T05:13:43.255Z,27.17
2023-04-21T05:16:11.258Z,27.63
2023-04-21T05:18:37.933Z,29.95
2023-04-21T05:21:04.692Z,26.10
2023-04-21T05:23:34.009Z,34.00
2023-04-21T05:26:03.404Z,28.90
2023-04-21T05:28:31.728Z,29.13
2023-04-21T05:30:58.176Z,26.55
2023-04-21T05:33:26.787Z,31.13
2023-04-21T05:35:53.430Z,28.08
2023-04-21T05:38:19.811Z,29.35
2023-04-21T05:40:53.392Z,26.67
2023-04-21T05:43:19.796Z,27.05
2023-04-21T05:45:46.218Z,27.90
2023-04-21T05:48:13.779Z,26.83
2023-04-21T05:50:40.268Z,30.27
2023-04-21T05:53:06.638Z,23.52
2023-04-21T05:55:37.040Z,29.33
2023-04-21T05:58:04.155Z,28.33
2023-04-21T06:00:30.542Z,24.95
2023-04-21T06:02:57.128Z,24.45
2023-04-21T06:05:23.652Z,24.52
2023-04-21T06:07:52.470Z,25.67
2023-04-21T06:10:19.362Z,25.30
2023-04-21T06:12:45.861Z,24.08
2023-04-21T06:15:12.297Z,23.52
2023-04-21T06:17:38.767Z,25.48
2023-04-21T06:20:05.761Z,25.65
2023-04-21T06:22:33.187Z,23.13
2023-04-21T06:25:00.631Z,21.77
2023-04-21T06:27:27.145Z,19.25
2023-04-21T06:29:56.790Z,22.02
2023-04-21T06:32:23.301Z,20.80
2023-04-21T06:34:49.735Z,24.73
2023-04-21T06:37:16.458Z,20.17
2023-04-21T06:39:42.929Z,16.85
2023-04-21T06:42:09.380Z,19.60
2023-04-21T06:44:36.140Z,21.90
2023-04-21T06:47:02.736Z,18.02
2023-04-21T06:49:29.232Z,17.85
2023-04-21T06:51:55.683Z,19.83
2023-04-21T06:54:22.124Z,18.83
2023-04-21T06:56:51.453Z,20.75
2023-04-21T06:59:18.078Z,19.77
2023-04-21T07:01:44.644Z,17.05
2023-04-21T07:04:11.036Z,20.77
2023-04-21T07:06:37.460Z,15.80
2023-04-21T07:09:03.876Z,20.98
2023-04-21T07:11:30.340Z,15.20
2023-04-21T07:13:57.379Z,13.85
2023-04-21T07:16:27.440Z,16.35
2023-04-21T07:18:56.257Z,14.63
2023-04-21T07:21:23.220Z,18.60
2023-04-21T07:23:49.645Z,14.98
2023-04-21T07:26:18.041Z,17.48
2023-04-21T07:28:44.418Z,16.00
2023-04-21T07:31:10.859Z,17.70
2023-04-21T07:33:37.360Z,17.23
2023-04-21T07:36:04.064Z,15.18
2023-04-21T07:38:30.627Z,16.67
2023-04-21T07:40:57.104Z,15.20
2023-04-21T07:43:23.611Z,12.90
2023-04-21T07:45:52.066Z,15.18
2023-04-21T07:48:19.011Z,17.70
2023-04-21T07:50:45.398Z,14.30
2023-04-21T07:53:11.829Z,16.27
2023-04-21T07:55:38.263Z,15.82
2023-04-21T07:58:05.074Z,11.75
2023-04-21T08:00:31.671Z,14.82
2023-04-21T08:02:58.197Z,15.13
2023-04-21T08:05:27.378Z,15.23
2023-04-21T08:07:55.623Z,11.50
2023-04-21T08:10:22.088Z,13.98
2023-04-21T08:12:48.546Z,14.05
2023-04-21T08:15:15.148Z,13.90
2023-04-21T08:17:41.665Z,14.52
2023-04-21T08:20:08.743Z,15.52
2023-04-21T08:22:37.770Z,15.15
2023-04-21T08:25:05.604Z,11.25
2023-04-21T08:27:32.093Z,12.07
2023-04-21T08:30:00.075Z,13.88
2023-04-21T08:32:26.762Z,11.60
2023-04-21T08:34:54.436Z,14.15
2023-04-21T08:37:21.461Z,11.90
2023-04-21T08:39:50.846Z,14.27
2023-04-21T08:42:17.904Z,10.82
2023-04-21T08:44:44.616Z,11.50
2023-04-21T08:47:11.646Z,12.98
2023-04-21T08:49:39.373Z,10.90
2023-04-21T08:52:06.072Z,13.38
2023-04-21T08:54:33.200Z,13.68
2023-04-21T08:57:11.896Z,13.15
2023-04-21T08:59:41.065Z,13.52
2023-04-21T09:02:09.888Z,12.52
2023-04-21T09:04:45.107Z,11.65
2023-04-21T09:07:12.823Z,11.07
2023-04-21T09:09:52.522Z,12.13
2023-04-21T09:12:19.384Z,13.00
2023-04-21T09:14:45.946Z,14.88
2023-04-21T09:17:12.560Z,14.73
2023-04-21T09:19:39.102Z,11.63
2023-04-21T09:22:05.887Z,13.65
2023-04-21T09:24:32.306Z,11.65
2023-04-21T09:26:58.732Z,13.55
2023-04-21T09:29:25.820Z,11.25
2023-04-21T09:31:52.912Z,8.98
2023-04-21T09:34:24.671Z,10.80
2023-04-21T09:37:04.441Z,11.65
2023-04-21T09:39:49.258Z,7.95
2023-04-21T09:42:19.383Z,14.00
2023-04-21T09:44:53.246Z,8.45
2023-04-21T09:47:31.041Z,11.60
2023-04-21T09:49:58.338Z,12.00
2023-04-21T09:52:27.877Z,11.80
2023-04-21T09:54:59.054Z,12.27
2023-04-21T09:57:26.157Z,11.37
2023-04-21T10:00:00.894Z,11.20
2023-04-21T10:02:30.599Z,8.52
2023-04-21T10:04:58.076Z,11.13
2023-04-21T10:07:24.573Z,11.40
2023-04-21T10:09:55.280Z,11.38
2023-04-21T10:12:23.058Z,12.80
2023-04-21T10:14:56.246Z,12.65
2023-04-21T10:17:25.009Z,9.02
2023-04-21T10:19:53.740Z,11.82
2023-04-21T10:22:31.786Z,8.75
2023-04-21T10:25:00.023Z,9.95
2023-04-21T10:27:43.009Z,8.45
2023-04-21T10:30:19.342Z,8.93
2023-04-21T10:32:46.339Z,8.90
2023-04-21T10:35:22.328Z,12.55
2023-04-21T10:37:49.899Z,10.93
2023-04-21T10:40:43.740Z,8.32
2023-04-21T10:43:43.296Z,13.52
2023-04-21T10:46:33.000Z,7.57
2023-04-21T10:49:13.086Z,11.45
2023-04-21T10:52:02.957Z,14.00
2023-04-21T10:54:43.019Z,12.70
2023-04-21T10:57:12.279Z,12.95
2023-04-21T10:59:39.004Z,10.73
2023-04-21T11:02:11.997Z,11.07
2023-04-21T11:04:45.363Z,10.13
2023-04-21T11:07:16.611Z,9.35
2023-04-21T11:09:43.967Z,8.98
2023-04-21T11:12:15.549Z,9.60
2023-04-21T11:14:43.597Z,9.35
2023-04-21T11:17:14.532Z,6.38
2023-04-21T11:19:41.120Z,8.40
2023-04-21T11:22:07.665Z,9.70
2023-04-21T11:24:34.288Z,5.93
2023-04-21T11:27:02.006Z,8.82
2023-04-21T11:29:31.921Z,7.50
2023-04-21T11:31:59.212Z,9.23
2023-04-21T11:34:26.418Z,7.68
2023-04-21T11:36:53.304Z,8.30
2023-04-21T11:39:21.977Z,6.38
2023-04-21T11:41:50.280Z,11.45
2023-04-21T11:44:36.034Z,6.55
2023-04-21T11:47:35.336Z,14.15
2023-04-21T11:50:02.237Z,11.90
2023-04-21T11:52:34.234Z,5.57
2023-04-21T11:57:29.583Z,8.68
2023-04-21T12:00:06.509Z,5.32
2023-04-21T12:02:33.600Z,7.35
2023-04-21T12:05:03.009Z,7.85
2023-04-21T12:07:31.648Z,7.82
2023-04-21T12:09:58.791Z,6.88
2023-04-21T12:12:27.885Z,5.45
2023-04-21T12:14:54.472Z,6.20
2023-04-21T12:17:21.339Z,6.50
2023-04-21T12:19:47.945Z,6.03
2023-04-21T12:22:16.299Z,7.22
2023-04-21T12:24:43.334Z,4.70
2023-04-21T12:27:10.337Z,8.60
2023-04-21T12:29:38.445Z,5.93
2023-04-21T12:32:06.048Z,7.68
2023-04-21T12:34:32.924Z,6.30
2023-04-21T12:36:59.459Z,7.53
2023-04-21T12:39:26.090Z,10.32
2023-04-21T12:41:52.717Z,7.43
2023-04-21T12:44:19.080Z,6.43
2023-04-21T12:46:46.101Z,10.18
2023-04-21T12:49:12.669Z,9.88
2023-04-21T12:51:41.452Z,12.13
2023-04-21T12:54:07.895Z,10.63
2023-04-21T12:56:34.274Z,4.95
2023-04-21T12:59:00.717Z,7.35
2023-04-21T13:01:27.228Z,8.55
2023-04-21T13:03:54.006Z,5.25
2023-04-21T13:06:20.564Z,8.75
2023-04-21T13:08:47.111Z,6.25
2023-04-21T13:11:13.822Z,5.25
2023-04-21T13:13:40.243Z,7.80
2023-04-21T13:16:06.635Z,5.28
2023-04-21T13:18:34.899Z,8.10
2023-04-21T13:21:01.783Z,7.25
2023-04-21T13:23:28.551Z,8.15
2023-04-21T13:25:55.684Z,5.63
2023-04-21T13:28:22.470Z,6.55
2023-04-21T13:30:50.746Z,10.13
2023-04-21T13:33:17.334Z,4.93
2023-04-21T13:35:43.802Z,8.20
2023-04-21T13:38:10.276Z,7.18
2023-04-21T13:40:36.895Z,6.13
2023-04-21T13:43:03.443Z,5.15
2023-04-21T13:45:29.899Z,11.45
2023-04-21T13:47:58.225Z,6.18
2023-04-21T13:50:25.128Z,6.53
2023-04-21T13:52:51.556Z,4.72
2023-04-21T13:55:18.087Z,13.05
2023-04-21T13:57:44.508Z,8.10
2023-04-21T14:00:11.911Z,5.22
2023-04-21T14:02:39.389Z,7.35
2023-04-21T14:05:06.377Z,9.88
2023-04-21T14:07:33.640Z,7.63
2023-04-21T14:10:00.129Z,7.75
2023-04-21T14:12:26.736Z,8.02
2023-04-21T14:14:53.290Z,4.78
2023-04-21T14:17:19.747Z,7.03
2023-04-21T14:19:46.371Z,6.78
2023-04-21T14:22:12.951Z,6.38
2023-04-21T14:24:39.356Z,7.32
2023-04-21T14:27:06.163Z,6.18
2023-04-21T14:29:32.840Z,8.30
2023-04-21T14:31:59.583Z,8.30
2023-04-21T14:34:26.126Z,4.60
2023-04-21T14:36:53.111Z,6.75
2023-04-21T14:39:19.819Z,9.10
2023-04-21T14:41:46.230Z,8.68
2023-04-21T14:44:13.138Z,8.27
2023-04-21T14:46:39.719Z,6.15
2023-04-21T14:49:06.327Z,7.50
2023-04-21T14:51:32.885Z,5.20
2023-04-21T14:53:59.485Z,4.65
2023-04-21T14:56:25.977Z,8.20
2023-04-21T14:58:52.508Z,7.68
2023-04-21T15:01:19.367Z,5.93
2023-04-21T15:03:46.025Z,8.43
2023-04-21T15:06:12.604Z,6.70
2023-04-21T15:08:39.857Z,5.50
2023-04-21T15:11:06.384Z,5.55
2023-04-21T15:13:32.897Z,5.65
2023-04-21T15:15:59.350Z,7.15
2023-04-21T15:18:25.772Z,7.40
2023-04-21T15:20:55.596Z,6.18
2023-04-21T15:23:22.041Z,5.00
2023-04-21T15:25:48.429Z,8.88
2023-04-21T15:28:14.862Z,7.57
2023-04-21T15:30:41.305Z,5.60
2023-04-21T15:33:07.890Z,5.78
2023-04-21T15:35:34.323Z,7.10
2023-04-21T15:38:00.984Z,5.88
2023-04-21T15:40:27.354Z,6.78
2023-04-21T15:42:53.904Z,5.55
2023-04-21T15:45:20.318Z,6.05
2023-04-21T15:47:46.786Z,8.20
2023-04-21T15:50:13.232Z,7.03
2023-04-21T15:52:43.218Z,5.07
2023-04-21T15:55:12.684Z,6.80
2023-04-21T15:57:39.203Z,6.68
2023-04-21T16:00:07.264Z,6.50
2023-04-21T16:02:33.953Z,5.35
2023-04-21T16:05:01.080Z,7.28
2023-04-21T16:07:27.795Z,10.10
2023-04-21T16:09:54.314Z,4.90
2023-04-21T16:12:20.808Z,6.10
2023-04-21T16:14:55.796Z,6.10
2023-04-21T16:17:27.557Z,7.47
2023-04-21T16:19:54.301Z,6.60
2023-04-21T16:22:20.862Z,7.95
2023-04-21T16:24:48.046Z,4.82
2023-04-21T16:27:14.551Z,8.35
2023-04-21T16:29:41.082Z,4.38
2023-04-21T16:32:08.236Z,6.72
2023-04-21T16:34:34.820Z,6.22
2023-04-21T16:37:01.315Z,6.35
2023-04-21T16:39:27.696Z,3.40
2023-04-21T16:41:54.114Z,6.07
2023-04-21T16:44:20.574Z,5.28
2023-04-21T16:46:47.245Z,6.68
2023-04-21T16:49:13.818Z,6.15
2023-04-21T16:51:44.565Z,4.13
2023-04-21T16:54:11.626Z,4.60
2023-04-21T16:56:38.763Z,5.45
2023-04-21T16:59:06.628Z,6.75
2023-04-21T17:01:33.223Z,5.25
2023-04-21T17:03:59.815Z,6.20
2023-04-21T17:06:26.743Z,4.65
2023-04-21T17:08:59.557Z,8.57
2023-04-21T17:11:27.529Z,6.32
2023-04-21T17:13:54.025Z,5.65
2023-04-21T17:16:20.569Z,7.35
2023-04-21T17:18:47.054Z,5.75
2023-04-21T17:21:13.493Z,4.28
2023-04-21T17:23:39.899Z,6.93
2023-04-21T17:26:07.055Z,6.45
2023-04-21T17:28:33.621Z,6.28
2023-04-21T17:31:13.872Z,5.57
2023-04-21T17:33:42.385Z,5.88
2023-04-21T17:36:08.853Z,7.47
2023-04-21T17:38:35.414Z,4.25
2023-04-21T17:41:02.012Z,8.43
2023-04-21T17:43:28.599Z,5.15
2023-04-21T17:45:55.145Z,5.10
2023-04-21T17:48:21.677Z,7.43
2023-04-21T17:50:48.180Z,4.93
2023-04-21T17:53:14.601Z,5.28
2023-04-21T17:55:41.073Z,6.22
2023-04-21T17:58:10.138Z,8.50
2023-04-21T18:00:38.146Z,5.43
2023-04-21T18:03:04.934Z,5.03
2023-04-21T18:05:31.569Z,4.93
2023-04-21T18:07:58.160Z,5.53
2023-04-21T18:10:25.856Z,6.13
2023-04-21T18:12:53.329Z,4.47
2023-04-21T18:15:19.960Z,7.05
2023-04-21T18:17:46.424Z,5.10
2023-04-21T18:20:14.816Z,5.05
2023-04-21T18:22:43.621Z,6.88
2023-04-21T18:25:11.715Z,5.72
2023-04-21T18:27:41.372Z,6.28
2023-04-21T18:30:11.525Z,8.48
2023-04-21T18:32:38.386Z,8.25
2023-04-21T18:35:06.072Z,5.22
2023-04-21T18:37:32.757Z,5.82
2023-04-21T18:39:59.198Z,5.28
2023-04-21T18:42:26.350Z,8.40
2023-04-21T18:44:56.294Z,6.75
2023-04-21T18:47:24.408Z,4.70
2023-04-21T18:49:51.478Z,6.85
2023-04-21T18:52:17.950Z,5.25
2023-04-21T18:54:44.420Z,8.23
2023-04-21T18:57:10.860Z,6.95
2023-04-21T18:59:37.330Z,4.75
2023-04-21T19:02:05.985Z,7.43
2023-04-21T19:04:32.612Z,6.78
2023-04-21T19:06:59.032Z,8.77
2023-04-21T19:09:27.156Z,10.05
2023-04-21T19:11:53.556Z,5.72
2023-04-21T19:14:19.967Z,10.52
2023-04-21T19:16:47.460Z,8.00
2023-04-21T19:19:13.938Z,5.85
2023-04-21T19:21:40.423Z,5.85
2023-04-21T19:24:06.858Z,6.57
2023-04-21T19:26:33.223Z,9.05
2023-04-21T19:28:59.698Z,8.65
2023-04-21T19:31:26.430Z,7.85
2023-04-21T19:33:53.008Z,8.13
2023-04-21T19:36:19.446Z,5.30
2023-04-21T19:38:45.819Z,5.90
2023-04-21T19:41:13.127Z,6.03
2023-04-21T19:43:39.521Z,7.85
2023-04-21T19:46:06.271Z,8.93
2023-04-21T19:48:32.813Z,3.92
2023-04-21T19:50:59.298Z,8.55
2023-04-21T19:53:25.764Z,5.22
2023-04-21T19:55:52.819Z,8.18
2023-04-21T19:58:32.108Z,6.47
2023-04-21T20:01:05.090Z,6.55
2023-04-21T20:03:31.791Z,3.95
2023-04-21T20:05:58.469Z,8.75
2023-04-21T20:08:24.894Z,6.78
2023-04-21T20:10:51.272Z,8.20
2023-04-21T20:13:17.661Z,9.20
2023-04-21T20:15:44.103Z,4.95
2023-04-21T20:18:10.785Z,6.40
2023-04-21T20:20:37.429Z,5.45
2023-04-21T20:23:03.977Z,8.82
2023-04-21T20:25:30.458Z,6.18
2023-04-21T20:27:57.480Z,7.75
2023-04-21T20:30:23.991Z,6.78
2023-04-21T20:32:50.473Z,9.65
2023-04-21T20:35:17.115Z,4.65
2023-04-21T20:37:44.374Z,6.70
2023-04-21T20:40:11.792Z,6.50
2023-04-21T20:42:39.071Z,5.97
2023-04-21T20:45:06.438Z,7.22
2023-04-21T20:47:33.942Z,9.88
2023-04-21T20:50:00.556Z,5.70
2023-04-21T20:52:27.039Z,8.40
2023-04-21T20:54:53.439Z,7.45
2023-04-21T20:57:19.915Z,8.68
2023-04-21T20:59:46.451Z,8.13
2023-04-21T21:02:13.054Z,5.68
2023-04-21T21:04:39.661Z,7.68
2023-04-21T21:07:06.424Z,10.55
2023-04-21T21:09:32.883Z,6.80
2023-04-21T21:11:59.348Z,5.80
2023-04-21T21:14:25.995Z,11.35
2023-04-21T21:16:54.570Z,8.07
2023-04-21T21:19:22.030Z,7.30
2023-04-21T21:21:48.486Z,9.13
2023-04-21T21:24:14.926Z,8.55
2023-04-21T21:26:42.869Z,7.00
2023-04-21T21:29:09.461Z,6.55
2023-04-21T21:31:35.930Z,5.35
2023-04-21T21:34:03.931Z,6.75
2023-04-21T21:36:31.808Z,5.53
2023-04-21T21:38:58.199Z,8.05
2023-04-21T21:41:24.622Z,7.90
2023-04-21T21:43:50.983Z,4.57
2023-04-21T21:46:18.572Z,7.25
2023-04-21T21:48:45.174Z,8.10
2023-04-21T21:51:11.611Z,6.57
2023-04-21T21:53:38.026Z,6.78
2023-04-21T21:56:05.072Z,4.65
2023-04-21T21:58:31.567Z,7.63
2023-04-21T22:00:58.097Z,6.30
2023-04-21T22:03:24.818Z,6.43
2023-04-21T22:05:52.179Z,8.68
2023-04-21T22:08:18.640Z,9.65
2023-04-21T22:10:45.209Z,6.82
2023-04-21T22:13:11.905Z,7.30
2023-04-21T22:15:38.746Z,5.53
2023-04-21T22:18:05.532Z,6.18
2023-04-21T22:20:32.277Z,6.40
2023-04-21T22:22:59.201Z,7.38
2023-04-21T22:25:27.093Z,6.88
2023-04-21T22:27:54.679Z,7.43
2023-04-21T22:30:21.359Z,8.15
2023-04-21T22:32:47.858Z,9.32
2023-04-21T22:35:14.355Z,7.10
2023-04-21T22:37:41.308Z,7.32
2023-04-21T22:40:08.350Z,12.82
2023-04-21T22:42:34.993Z,6.80
2023-04-21T22:45:01.609Z,8.18
2023-04-21T22:47:28.172Z,8.55
2023-04-21T22:49:55.784Z,6.72
2023-04-21T22:52:22.217Z,6.10
2023-04-21T22:54:48.597Z,6.10
2023-04-21T22:57:15.016Z,6.30
2023-04-21T22:59:41.451Z,5.82
2023-04-21T23:02:08.226Z,6.63
2023-04-21T23:04:35.411Z,4.85
2023-04-21T23:07:01.827Z,7.10
2023-04-21T23:09:28.302Z,6.03
2023-04-21T23:11:54.680Z,8.93
2023-04-21T23:14:21.226Z,6.82
2023-04-21T23:16:47.680Z,6.35
2023-04-21T23:19:14.115Z,12.10
2023-04-21T23:21:40.577Z,9.18
2023-04-21T23:24:07.240Z,6.70
2023-04-21T23:26:33.694Z,6.28
2023-04-21T23:29:00.251Z,6.15
2023-04-21T23:31:26.778Z,7.80
2023-04-21T23:33:53.157Z,5.88
2023-04-21T23:36:19.581Z,12.00
2023-04-21T23:38:45.970Z,8.23
2023-04-21T23:41:12.360Z,6.88
2023-04-21T23:43:38.834Z,7.50
2023-04-21T23:46:05.483Z,8.77
2023-04-21T23:48:31.990Z,8.05
2023-04-21T23:50:58.479Z,5.53
2023-04-21T23:53:24.971Z,6.13
2023-04-21T23:55:51.390Z,10.88
2023-04-21T23:58:17.802Z,7.65
